createdAt,value
2019-03-24T00:00:28.479Z,4.13
2019-03-24T00:02:59.346Z,4.17
2019-03-24T00:05:30.238Z,5.60
2019-03-24T00:08:01.119Z,4.67
2019-03-24T00:10:31.924Z,4.17
2019-03-24T00:13:02.791Z,4.87
2019-03-24T00:15:33.754Z,4.10
2019-03-24T00:18:04.616Z,4.57
2019-03-24T00:20:35.503Z,4.50
2019-03-24T00:23:05.456Z,4.90
2019-03-24T00:25:36.211Z,4.80
2019-03-24T00:28:07.096Z,4.97
2019-03-24T00:30:37.954Z,4.70
2019-03-24T00:33:07.898Z,5.27
2019-03-24T00:35:38.646Z,4.63
2019-03-24T00:38:09.455Z,5.03
2019-03-24T00:40:40.343Z,4.30
2019-03-24T00:43:11.207Z,3.70
2019-03-24T00:45:42.086Z,4.90
2019-03-24T00:48:13.040Z,4.90
2019-03-24T00:50:43.903Z,4.13
2019-03-24T00:53:14.779Z,4.80
2019-03-24T00:55:45.623Z,4.47
2019-03-24T00:58:16.761Z,4.70
2019-03-24T01:00:49.575Z,4.60
2019-03-24T01:03:20.657Z,3.93
2019-03-24T01:05:51.506Z,3.87
2019-03-24T01:08:21.535Z,4.07
2019-03-24T01:10:52.250Z,4.77
2019-03-24T01:13:23.091Z,4.17
2019-03-24T01:15:53.030Z,4.97
2019-03-24T01:18:23.818Z,4.80
2019-03-24T01:20:54.675Z,4.20
2019-03-24T01:23:25.547Z,3.63
2019-03-24T01:25:56.403Z,3.73
2019-03-24T01:28:26.351Z,3.33
2019-03-24T01:30:57.055Z,4.00
2019-03-24T01:33:28.019Z,4.10
2019-03-24T01:35:58.899Z,3.80
2019-03-24T01:38:29.744Z,3.40
2019-03-24T01:40:59.688Z,3.80
2019-03-24T01:43:30.499Z,3.87
2019-03-24T01:46:00.427Z,4.40
2019-03-24T01:48:31.196Z,4.10
2019-03-24T01:51:01.150Z,4.27
2019-03-24T01:53:31.016Z,3.90
2019-03-24T01:56:00.881Z,3.50
2019-03-24T01:58:31.639Z,3.67
2019-03-24T02:01:02.499Z,4.00
2019-03-24T02:03:33.371Z,3.73
2019-03-24T02:06:04.339Z,3.70
2019-03-24T02:08:35.199Z,4.13
2019-03-24T02:11:06.045Z,3.80
2019-03-24T02:13:36.924Z,4.30
2019-03-24T02:16:09.671Z,3.10
2019-03-24T02:18:39.382Z,3.33
2019-03-24T02:21:10.242Z,3.37
2019-03-24T02:23:41.101Z,3.95
2019-03-24T02:26:11.044Z,4.20
2019-03-24T02:28:41.830Z,3.67
2019-03-24T02:31:11.767Z,4.10
2019-03-24T02:33:42.546Z,4.03
2019-03-24T02:36:13.394Z,4.63
2019-03-24T02:38:44.274Z,4.13
2019-03-24T02:41:15.123Z,4.00
2019-03-24T02:43:46.001Z,3.90
2019-03-24T02:46:24.243Z,4.60
2019-03-24T02:48:49.329Z,3.73
2019-03-24T02:51:20.204Z,3.67
2019-03-24T02:53:51.067Z,3.23
2019-03-24T02:56:21.903Z,3.30
2019-03-24T02:58:52.783Z,4.50
2019-03-24T03:01:23.704Z,3.53
2019-03-24T03:03:54.561Z,3.53
2019-03-24T03:06:24.623Z,3.73
2019-03-24T03:08:55.402Z,3.30
2019-03-24T03:11:26.279Z,3.10
2019-03-24T03:13:57.141Z,4.20
2019-03-24T03:16:37.988Z,3.83
2019-03-24T03:18:59.491Z,2.63
2019-03-24T03:21:29.434Z,3.63
2019-03-24T03:24:00.212Z,3.27
2019-03-24T03:26:30.178Z,3.20
2019-03-24T03:29:00.032Z,2.77
2019-03-24T03:31:30.819Z,3.00
2019-03-24T03:34:01.685Z,3.73
2019-03-24T03:36:32.554Z,3.60
2019-03-24T03:39:04.898Z,3.30
2019-03-24T03:41:35.756Z,3.40
2019-03-24T03:44:06.639Z,3.43
2019-03-24T03:46:36.633Z,4.23
2019-03-24T03:49:07.390Z,3.93
2019-03-24T03:51:38.276Z,3.07
2019-03-24T03:54:09.119Z,3.63
2019-03-24T03:56:40.005Z,3.43
2019-03-24T03:59:10.865Z,3.13
2019-03-24T04:01:41.712Z,3.90
2019-03-24T04:04:11.648Z,2.80
2019-03-24T04:06:41.508Z,3.50
2019-03-24T04:09:11.328Z,3.53
2019-03-24T04:11:42.112Z,3.67
2019-03-24T04:14:12.050Z,3.20
2019-03-24T04:16:41.892Z,3.33
2019-03-24T04:19:11.731Z,3.43
2019-03-24T04:21:41.607Z,3.87
2019-03-24T04:24:12.377Z,4.67
2019-03-24T04:26:43.244Z,3.17
2019-03-24T04:29:14.116Z,3.33
2019-03-24T04:31:44.984Z,3.80
2019-03-24T04:34:15.860Z,3.37
2019-03-24T04:36:46.727Z,3.97
2019-03-24T04:39:17.592Z,4.03
2019-03-24T04:41:48.444Z,3.43
2019-03-24T04:44:19.308Z,3.47
2019-03-24T04:46:50.176Z,2.80
2019-03-24T04:49:21.034Z,3.97
2019-03-24T04:51:51.882Z,3.83
2019-03-24T04:54:22.743Z,3.70
2019-03-24T04:56:53.696Z,3.63
2019-03-24T04:59:24.551Z,3.77
2019-03-24T05:01:55.415Z,3.90
2019-03-24T05:04:26.276Z,3.27
2019-03-24T05:06:57.223Z,4.22
2019-03-24T05:09:28.598Z,4.23
2019-03-24T05:11:59.453Z,3.53
2019-03-24T05:14:30.347Z,3.50
2019-03-24T05:17:01.208Z,4.27
2019-03-24T05:19:31.163Z,3.63
2019-03-24T05:22:01.962Z,3.60
2019-03-24T05:24:31.927Z,4.23
2019-03-24T05:27:02.678Z,3.47
2019-03-24T05:29:33.537Z,3.57
2019-03-24T05:32:04.418Z,5.17
2019-03-24T05:34:35.287Z,3.97
2019-03-24T05:37:06.143Z,5.00
2019-03-24T05:39:37.012Z,3.80
2019-03-24T05:42:07.907Z,3.40
2019-03-24T05:44:38.816Z,4.10
2019-03-24T05:47:09.679Z,4.97
2019-03-24T05:49:40.552Z,4.53
2019-03-24T05:52:11.440Z,4.47
2019-03-24T05:54:42.297Z,4.43
2019-03-24T05:57:13.071Z,4.37
2019-03-24T05:59:43.999Z,4.00
2019-03-24T06:02:14.859Z,4.57
2019-03-24T06:04:45.749Z,4.17
2019-03-24T06:07:16.581Z,4.17
2019-03-24T06:09:47.387Z,4.83
2019-03-24T06:12:17.335Z,6.10
2019-03-24T06:14:48.251Z,5.17
2019-03-24T06:17:19.099Z,6.78
2019-03-24T06:19:50.141Z,8.00
2019-03-24T06:22:21.215Z,5.93
2019-03-24T06:24:51.163Z,6.03
2019-03-24T06:27:21.932Z,7.07
2019-03-24T06:29:52.815Z,8.17
2019-03-24T06:32:22.758Z,7.73
2019-03-24T06:34:53.519Z,8.77
2019-03-24T06:37:23.433Z,6.60
2019-03-24T06:39:54.219Z,6.63
2019-03-24T06:42:24.151Z,5.83
2019-03-24T06:44:54.939Z,5.17
2019-03-24T06:47:24.860Z,5.05
2019-03-24T06:49:55.647Z,5.67
2019-03-24T06:52:26.515Z,4.67
2019-03-24T06:54:57.375Z,4.97
2019-03-24T06:57:28.235Z,4.97
2019-03-24T06:59:59.127Z,5.23
2019-03-24T07:02:29.991Z,6.03
2019-03-24T07:05:00.860Z,4.27
2019-03-24T07:07:31.737Z,3.90
2019-03-24T07:10:02.608Z,4.80
2019-03-24T07:12:33.588Z,5.23
2019-03-24T07:15:04.827Z,4.57
2019-03-24T07:17:37.622Z,4.73
2019-03-24T07:20:08.507Z,3.90
2019-03-24T07:22:39.387Z,4.63
2019-03-24T07:25:10.468Z,4.33
2019-03-24T07:27:41.361Z,4.30
2019-03-24T07:30:13.518Z,4.97
2019-03-24T07:32:44.379Z,4.60
2019-03-24T07:35:15.238Z,3.93
2019-03-24T07:37:46.055Z,4.27
2019-03-24T07:40:17.146Z,3.67
2019-03-24T07:42:47.991Z,4.93
2019-03-24T07:45:18.918Z,4.70
2019-03-24T07:47:49.662Z,3.97
2019-03-24T07:50:20.566Z,3.80
2019-03-24T07:52:50.552Z,4.43
2019-03-24T07:55:20.464Z,4.03
2019-03-24T07:57:51.256Z,3.90
2019-03-24T08:00:46.328Z,4.37
2019-03-24T08:03:17.096Z,4.10
2019-03-24T08:05:48.013Z,3.80
2019-03-24T08:08:18.934Z,3.90
2019-03-24T08:10:49.771Z,3.00
2019-03-24T08:13:20.866Z,3.50
2019-03-24T08:15:51.802Z,3.03
2019-03-24T08:18:29.530Z,2.93
2019-03-24T08:20:53.322Z,3.70
2019-03-24T08:23:23.188Z,3.63
2019-03-24T08:25:54.013Z,2.97
2019-03-24T08:28:23.953Z,3.40
2019-03-24T08:30:53.806Z,2.90
2019-03-24T08:33:23.707Z,3.20
2019-03-24T08:35:54.511Z,3.87
2019-03-24T08:38:25.426Z,4.00
2019-03-24T08:40:56.283Z,3.77
2019-03-24T08:43:26.251Z,3.50
2019-03-24T08:45:57.070Z,3.37
2019-03-24T08:48:27.959Z,3.57
2019-03-24T08:50:58.819Z,2.80
2019-03-24T08:53:29.698Z,3.17
2019-03-24T08:56:01.026Z,2.77
2019-03-24T08:58:31.221Z,3.67
2019-03-24T09:01:01.083Z,23.23
2019-03-24T09:03:32.651Z,2.83
2019-03-24T09:06:02.419Z,3.73
2019-03-24T09:08:32.282Z,4.30
2019-03-24T09:11:02.227Z,3.20
2019-03-24T09:13:32.062Z,2.90
2019-03-24T09:16:01.892Z,3.53
2019-03-24T09:18:32.692Z,3.20
2019-03-24T09:21:02.654Z,3.10
2019-03-24T09:23:33.351Z,2.90
2019-03-24T09:26:03.494Z,3.70
2019-03-24T09:28:33.360Z,3.70
2019-03-24T09:31:03.338Z,3.80
2019-03-24T09:33:34.041Z,3.77
2019-03-24T09:36:04.075Z,3.40
2019-03-24T09:38:34.887Z,3.37
2019-03-24T09:41:05.789Z,3.83
2019-03-24T09:43:36.684Z,3.23
2019-03-24T09:46:07.551Z,3.13
2019-03-24T09:48:38.470Z,3.77
2019-03-24T09:51:09.430Z,3.17
2019-03-24T09:53:39.457Z,3.50
2019-03-24T09:56:10.256Z,2.80
2019-03-24T09:58:41.099Z,2.90
2019-03-24T10:01:12.007Z,2.90
2019-03-24T10:03:42.855Z,3.10
2019-03-24T10:06:13.751Z,3.20
2019-03-24T10:08:47.250Z,2.77
2019-03-24T10:11:16.310Z,2.70
2019-03-24T10:13:47.083Z,2.70
2019-03-24T10:16:17.923Z,2.63
2019-03-24T10:18:48.720Z,1.70
2019-03-24T10:21:19.582Z,1.60
2019-03-24T10:23:50.371Z,1.50
2019-03-24T10:26:21.246Z,1.20
2019-03-24T10:28:52.127Z,1.73
2019-03-24T10:31:23.045Z,1.90
2019-03-24T10:33:53.890Z,1.67
2019-03-24T10:36:23.750Z,1.83
2019-03-24T10:38:54.440Z,1.70
2019-03-24T10:41:25.319Z,2.30
2019-03-24T10:43:56.170Z,2.10
2019-03-24T10:46:26.050Z,1.87
2019-03-24T10:48:56.754Z,1.93
2019-03-24T10:51:27.639Z,2.20
2019-03-24T10:53:58.512Z,3.27
2019-03-24T10:56:29.490Z,3.17
2019-03-24T10:58:59.354Z,3.57
2019-03-24T11:01:30.160Z,3.70
2019-03-24T11:04:01.029Z,3.87
2019-03-24T11:06:30.995Z,3.25
2019-03-24T11:09:01.815Z,3.87
2019-03-24T11:11:31.783Z,3.50
2019-03-24T11:14:02.558Z,3.33
2019-03-24T11:16:32.503Z,2.90
2019-03-24T11:19:03.314Z,3.13
2019-03-24T11:21:34.206Z,2.93
2019-03-24T11:24:04.241Z,3.13
2019-03-24T11:26:35.027Z,3.62
2019-03-24T11:29:05.910Z,3.37
2019-03-24T11:31:36.802Z,3.37
2019-03-24T11:34:07.602Z,3.33
2019-03-24T11:36:37.755Z,3.60
2019-03-24T11:39:09.170Z,3.90
2019-03-24T11:41:39.163Z,3.55
2019-03-24T11:44:10.052Z,3.40
2019-03-24T11:46:40.922Z,4.10
2019-03-24T11:49:21.201Z,4.10
2019-03-24T11:51:52.111Z,3.70
2019-03-24T11:54:22.959Z,4.17
2019-03-24T11:56:53.847Z,3.63
2019-03-24T11:59:24.744Z,3.67
2019-03-24T12:01:55.626Z,3.77
2019-03-24T12:04:26.494Z,3.85
2019-03-24T12:06:56.439Z,4.17
2019-03-24T12:09:27.239Z,3.47
2019-03-24T12:11:58.099Z,3.50
2019-03-24T12:14:28.971Z,3.70
2019-03-24T12:16:59.883Z,3.50
2019-03-24T12:19:30.771Z,4.20
2019-03-24T12:22:00.728Z,4.10
2019-03-24T12:24:31.660Z,4.10
2019-03-24T12:27:02.539Z,4.27
2019-03-24T12:29:33.439Z,4.05
2019-03-24T12:32:04.315Z,4.20
2019-03-24T12:34:35.199Z,3.83
2019-03-24T12:37:05.135Z,4.07
2019-03-24T12:39:35.915Z,4.17
2019-03-24T12:42:06.851Z,3.40
2019-03-24T12:44:37.726Z,4.10
2019-03-24T12:47:07.663Z,3.70
2019-03-24T12:49:38.450Z,3.97
2019-03-24T12:52:08.423Z,4.33
2019-03-24T12:54:39.212Z,4.23
2019-03-24T12:57:09.176Z,4.03
2019-03-24T12:59:40.027Z,5.03
2019-03-24T13:02:09.980Z,4.03
2019-03-24T13:04:40.740Z,4.10
2019-03-24T13:07:10.695Z,3.73
2019-03-24T13:09:40.541Z,4.00
2019-03-24T13:12:13.053Z,4.03
2019-03-24T13:14:44.033Z,3.93
2019-03-24T13:17:14.977Z,4.13
2019-03-24T13:19:45.852Z,4.77
2019-03-24T13:22:16.750Z,4.43
2019-03-24T13:24:47.611Z,4.70
2019-03-24T13:27:18.527Z,4.43
2019-03-24T13:29:49.427Z,4.47
2019-03-24T13:32:20.333Z,4.40
2019-03-24T13:34:50.190Z,5.10
2019-03-24T13:37:20.467Z,4.73
2019-03-24T13:39:51.261Z,4.53
2019-03-24T13:42:22.179Z,4.80
2019-03-24T13:44:53.095Z,5.87
2019-03-24T13:47:23.194Z,5.03
2019-03-24T13:49:53.980Z,4.77
2019-03-24T13:52:24.987Z,5.17
2019-03-24T13:54:55.900Z,5.20
2019-03-24T13:57:26.807Z,5.00
2019-03-24T13:59:57.711Z,5.07
2019-03-24T14:02:28.623Z,5.07
2019-03-24T14:04:59.545Z,5.40
2019-03-24T14:07:29.528Z,5.00
2019-03-24T14:10:00.351Z,4.80
2019-03-24T14:12:31.323Z,4.17
2019-03-24T14:15:01.275Z,4.87
2019-03-24T14:17:31.158Z,4.90
2019-03-24T14:20:01.982Z,4.83
2019-03-24T14:22:31.899Z,5.00
2019-03-24T14:25:02.690Z,4.67
2019-03-24T14:27:33.568Z,4.85
2019-03-24T14:30:04.577Z,5.30
2019-03-24T14:32:35.560Z,4.27
2019-03-24T14:35:05.575Z,4.87
2019-03-24T14:37:35.441Z,4.80
2019-03-24T14:40:06.771Z,5.17
2019-03-24T14:42:37.687Z,4.70
2019-03-24T14:45:09.059Z,4.97
2019-03-24T14:47:38.982Z,5.23
2019-03-24T14:50:08.760Z,5.10
2019-03-24T14:52:39.560Z,4.87
2019-03-24T14:55:10.440Z,4.90
2019-03-24T14:57:40.388Z,4.67
2019-03-24T15:00:11.603Z,4.93
2019-03-24T15:02:41.550Z,5.27
2019-03-24T15:05:12.464Z,5.27
2019-03-24T15:07:43.355Z,5.00
2019-03-24T15:10:13.419Z,4.57
2019-03-24T15:12:44.226Z,5.07
2019-03-24T15:15:14.268Z,4.97
2019-03-24T15:17:45.051Z,5.87
2019-03-24T15:20:15.932Z,6.17
2019-03-24T15:22:46.830Z,4.90
2019-03-24T15:25:17.720Z,5.87
2019-03-24T15:27:47.682Z,6.67
2019-03-24T15:30:18.648Z,6.90
2019-03-24T15:32:48.667Z,7.53
2019-03-24T15:35:19.511Z,6.63
2019-03-24T15:37:50.407Z,6.23
2019-03-24T15:40:21.300Z,7.17
2019-03-24T15:42:52.307Z,6.47
2019-03-24T15:45:22.295Z,7.30
2019-03-24T15:47:52.147Z,6.57
2019-03-24T15:50:29.523Z,6.57
2019-03-24T15:53:00.306Z,6.83
2019-03-24T15:55:30.291Z,7.25
2019-03-24T15:58:00.176Z,7.57
2019-03-24T16:00:48.768Z,7.40
2019-03-24T16:03:20.366Z,8.47
2019-03-24T16:05:50.639Z,8.90
2019-03-24T16:08:21.495Z,7.37
2019-03-24T16:10:51.455Z,7.50
2019-03-24T16:13:21.296Z,7.60
2019-03-24T16:15:52.113Z,7.70
2019-03-24T16:18:22.028Z,7.67
2019-03-24T16:20:51.894Z,8.27
2019-03-24T16:23:21.764Z,7.77
2019-03-24T16:25:52.563Z,8.70
2019-03-24T16:28:23.479Z,8.97
2019-03-24T16:30:54.395Z,7.97
2019-03-24T16:33:24.366Z,8.70
2019-03-24T16:35:55.160Z,8.47
2019-03-24T16:38:26.044Z,8.60
2019-03-24T16:40:56.938Z,8.83
2019-03-24T16:43:27.807Z,9.55
2019-03-24T16:45:58.692Z,9.03
2019-03-24T16:48:36.713Z,9.93
2019-03-24T16:51:03.343Z,9.40
2019-03-24T16:53:33.278Z,8.43
2019-03-24T16:56:04.061Z,8.13
2019-03-24T16:58:34.018Z,8.93
2019-03-24T17:01:04.894Z,8.90
2019-03-24T17:03:34.940Z,9.10
2019-03-24T17:06:04.803Z,9.37
2019-03-24T17:08:34.647Z,10.27
2019-03-24T17:11:05.519Z,8.63
2019-03-24T17:13:35.467Z,8.60
2019-03-24T17:16:05.263Z,8.97
2019-03-24T17:18:35.132Z,8.87
2019-03-24T17:21:06.025Z,9.00
2019-03-24T17:23:36.044Z,10.08
2019-03-24T17:26:06.843Z,8.70
2019-03-24T17:28:36.794Z,8.60
2019-03-24T17:31:06.905Z,8.60
2019-03-24T17:33:36.769Z,8.97
2019-03-24T17:36:06.727Z,7.97
2019-03-24T17:38:37.426Z,7.80
2019-03-24T17:41:07.449Z,7.13
2019-03-24T17:43:38.254Z,7.93
2019-03-24T17:46:08.192Z,7.17
2019-03-24T17:48:38.062Z,7.60
2019-03-24T17:51:08.907Z,7.33
2019-03-24T17:53:38.834Z,7.63
2019-03-24T17:56:08.695Z,7.07
2019-03-24T17:58:39.491Z,8.23
2019-03-24T18:01:10.384Z,7.57
2019-03-24T18:03:41.874Z,8.80
2019-03-24T18:06:11.803Z,7.57
2019-03-24T18:08:42.618Z,7.27
2019-03-24T18:11:13.482Z,7.40
2019-03-24T18:13:44.374Z,7.70
2019-03-24T18:16:15.260Z,8.40
2019-03-24T18:18:45.224Z,8.57
2019-03-24T18:21:16.639Z,8.43
2019-03-24T18:23:47.569Z,8.03
2019-03-24T18:26:17.519Z,9.23
2019-03-24T18:28:48.289Z,8.40
2019-03-24T18:31:20.083Z,7.97
2019-03-24T18:33:50.031Z,8.33
2019-03-24T18:36:20.807Z,9.67
2019-03-24T18:38:50.917Z,9.10
2019-03-24T18:41:21.706Z,8.57
2019-03-24T18:43:51.709Z,9.17
2019-03-24T18:46:21.583Z,9.33
2019-03-24T18:48:51.552Z,9.70
2019-03-24T18:51:21.362Z,9.67
2019-03-24T18:53:51.236Z,10.13
2019-03-24T18:56:21.093Z,10.20
2019-03-24T18:58:51.991Z,10.43
2019-03-24T19:01:22.854Z,9.10
2019-03-24T19:03:53.839Z,10.10
2019-03-24T19:06:23.783Z,9.73
2019-03-24T19:08:53.667Z,8.73
2019-03-24T19:11:23.754Z,9.97
2019-03-24T19:13:53.608Z,9.53
2019-03-24T19:16:23.499Z,11.03
2019-03-24T19:18:53.386Z,10.03
2019-03-24T19:21:23.317Z,11.03
2019-03-24T19:23:53.185Z,8.80
2019-03-24T19:26:24.019Z,9.40
2019-03-24T19:28:54.928Z,9.13
2019-03-24T19:31:26.219Z,8.67
2019-03-24T19:33:56.476Z,9.30
2019-03-24T19:36:26.299Z,7.70
2019-03-24T19:38:56.099Z,6.47
2019-03-24T19:41:26.879Z,5.57
2019-03-24T19:43:57.103Z,4.53
2019-03-24T19:46:27.876Z,4.07
2019-03-24T19:48:57.950Z,4.13
2019-03-24T19:51:28.710Z,2.77
2019-03-24T19:54:00.003Z,2.60
2019-03-24T19:56:29.939Z,2.60
2019-03-24T19:59:01.198Z,2.93
2019-03-24T20:01:31.165Z,2.72
2019-03-24T20:04:01.489Z,2.83
2019-03-24T20:06:31.339Z,2.30
2019-03-24T20:09:01.322Z,3.17
2019-03-24T20:11:31.144Z,2.80
2019-03-24T20:14:01.033Z,2.63
2019-03-24T20:16:30.879Z,2.90
2019-03-24T20:19:00.762Z,2.47
2019-03-24T20:21:31.535Z,2.20
2019-03-24T20:24:01.517Z,2.10
2019-03-24T20:26:31.370Z,2.20
2019-03-24T20:29:02.175Z,2.00
2019-03-24T20:31:32.146Z,1.90
2019-03-24T20:34:02.009Z,2.07
2019-03-24T20:36:31.933Z,2.17
2019-03-24T20:39:01.798Z,2.83
2019-03-24T20:41:31.663Z,2.73
2019-03-24T20:44:01.542Z,2.40
2019-03-24T20:46:31.419Z,3.20
2019-03-24T20:49:01.260Z,4.57
2019-03-24T20:51:32.083Z,4.83
2019-03-24T20:54:02.081Z,4.50
2019-03-24T20:56:31.968Z,4.13
2019-03-24T20:59:01.875Z,3.27
2019-03-24T21:01:32.695Z,2.93
2019-03-24T21:04:02.662Z,3.03
2019-03-24T21:06:32.543Z,2.70
2019-03-24T21:09:03.823Z,2.70
2019-03-24T21:11:33.819Z,2.62
2019-03-24T21:14:03.663Z,2.63
2019-03-24T21:16:33.539Z,2.27
2019-03-24T21:19:04.452Z,2.83
2019-03-24T21:21:36.301Z,2.87
2019-03-24T21:24:06.334Z,2.77
2019-03-24T21:26:36.227Z,2.87
2019-03-24T21:29:07.018Z,2.93
2019-03-24T21:31:36.952Z,2.70
2019-03-24T21:34:06.914Z,3.07
2019-03-24T21:36:36.754Z,2.70
2019-03-24T21:39:07.145Z,3.43
2019-03-24T21:41:38.061Z,2.97
2019-03-24T21:44:09.146Z,2.33
2019-03-24T21:46:39.917Z,2.80
2019-03-24T21:49:10.819Z,2.50
2019-03-24T21:51:40.774Z,2.30
2019-03-24T21:54:10.683Z,2.90
2019-03-24T21:56:41.445Z,2.30
2019-03-24T21:59:12.339Z,2.40
2019-03-24T22:01:43.215Z,2.30
2019-03-24T22:04:13.150Z,2.50
2019-03-24T22:06:43.020Z,2.50
2019-03-24T22:09:13.795Z,2.00
2019-03-24T22:11:44.663Z,2.20
2019-03-24T22:14:15.640Z,2.10
2019-03-24T22:16:45.591Z,2.23
2019-03-24T22:19:15.426Z,2.40
2019-03-24T22:21:45.260Z,2.20
2019-03-24T22:24:16.053Z,1.80
2019-03-24T22:26:45.995Z,2.00
2019-03-24T22:29:16.781Z,1.70
2019-03-24T22:31:47.646Z,1.50
2019-03-24T22:34:18.514Z,1.80
2019-03-24T22:36:48.534Z,1.83
2019-03-24T22:39:19.313Z,1.90
2019-03-24T22:41:49.248Z,2.07
2019-03-24T22:44:19.389Z,1.77
2019-03-24T22:46:49.267Z,2.07
2019-03-24T22:49:20.383Z,1.77
2019-03-24T22:51:51.243Z,1.87
2019-03-24T22:54:22.462Z,2.03
2019-03-24T22:56:53.432Z,1.63
2019-03-24T22:59:23.401Z,1.50
2019-03-24T23:01:54.187Z,1.63
2019-03-24T23:04:24.323Z,1.53
2019-03-24T23:06:55.101Z,1.80
2019-03-24T23:09:25.999Z,2.10
2019-03-24T23:11:56.879Z,1.70
2019-03-24T23:14:26.810Z,1.70
2019-03-24T23:16:57.581Z,1.67
2019-03-24T23:19:28.427Z,1.93
2019-03-24T23:21:59.351Z,2.93
2019-03-24T23:24:29.279Z,1.60
2019-03-24T23:27:00.052Z,1.73
2019-03-24T23:29:30.923Z,1.52
2019-03-24T23:32:01.803Z,1.40
2019-03-24T23:34:32.658Z,1.30
2019-03-24T23:37:03.427Z,1.60
2019-03-24T23:39:34.275Z,1.47
2019-03-24T23:42:05.267Z,1.30
2019-03-24T23:44:36.140Z,1.20
2019-03-24T23:47:06.974Z,1.50
2019-03-24T23:49:36.910Z,1.47
2019-03-24T23:52:07.743Z,1.60
2019-03-24T23:54:38.599Z,1.70
2019-03-24T23:57:08.607Z,1.30
2019-03-24T23:59:39.379Z,1.33
